sensor_id;sensor_type;location;lat;lon;timestamp;pressure;altitude;pressure_sealevel;temperature
62932;BMP280;49037;41.898;25.004;2022-12-07T00:01:04;96494.06;;;6.50
62932;BMP280;49037;41.898;25.004;2022-12-07T00:03:29;96507.13;;;6.48
62932;BMP280;49037;41.898;25.004;2022-12-07T00:05:57;96491.03;;;6.41
62932;BMP280;49037;41.898;25.004;2022-12-07T00:08:23;96504.47;;;6.43
62932;BMP280;49037;41.898;25.004;2022-12-07T00:10:48;96500.44;;;6.36
62932;BMP280;49037;41.898;25.004;2022-12-07T00:13:14;96514.69;;;6.33
62932;BMP280;49037;41.898;25.004;2022-12-07T00:15:39;96505.59;;;6.29
62932;BMP280;49037;41.898;25.004;2022-12-07T00:18:05;96491.69;;;6.17
62932;BMP280;49037;41.898;25.004;2022-12-07T00:20:30;96510.19;;;6.28
62932;BMP280;49037;41.898;25.004;2022-12-07T00:22:56;96494.06;;;6.21
62932;BMP280;49037;41.898;25.004;2022-12-07T00:25:21;96498.22;;;6.16
62932;BMP280;49037;41.898;25.004;2022-12-07T00:27:47;96502.47;;;6.25
62932;BMP280;49037;41.898;25.004;2022-12-07T00:30:12;96509.28;;;6.20
62932;BMP280;49037;41.898;25.004;2022-12-07T00:32:38;96508.28;;;6.23
62932;BMP280;49037;41.898;25.004;2022-12-07T00:35:04;96502.75;;;6.21
62932;BMP280;49037;41.898;25.004;2022-12-07T00:37:29;96516.19;;;6.29
62932;BMP280;49037;41.898;25.004;2022-12-07T00:39:55;96506.84;;;6.22
62932;BMP280;49037;41.898;25.004;2022-12-07T00:42:20;96518.38;;;6.25
62932;BMP280;49037;41.898;25.004;2022-12-07T00:44:46;96503.97;;;6.20
62932;BMP280;49037;41.898;25.004;2022-12-07T00:47:11;96503.97;;;6.20
62932;BMP280;49037;41.898;25.004;2022-12-07T00:49:37;96515.16;;;6.37
62932;BMP280;49037;41.898;25.004;2022-12-07T00:52:02;96514.53;;;6.26
62932;BMP280;49037;41.898;25.004;2022-12-07T00:54:28;96517.34;;;6.33
62932;BMP280;49037;41.898;25.004;2022-12-07T00:56:53;96514.44;;;6.37
62932;BMP280;49037;41.898;25.004;2022-12-07T00:59:19;96506.09;;;6.27
62932;BMP280;49037;41.898;25.004;2022-12-07T01:01:44;96520.69;;;6.39
62932;BMP280;49037;41.898;25.004;2022-12-07T01:04:10;96505.88;;;6.25
62932;BMP280;49037;41.898;25.004;2022-12-07T01:06:35;96514.97;;;6.30
62932;BMP280;49037;41.898;25.004;2022-12-07T01:09:01;96500.31;;;6.23
62932;BMP280;49037;41.898;25.004;2022-12-07T01:11:28;96518.75;;;6.40
62932;BMP280;49037;41.898;25.004;2022-12-07T01:13:56;96501.50;;;6.28
62932;BMP280;49037;41.898;25.004;2022-12-07T01:16:23;96503.59;;;6.35
62932;BMP280;49037;41.898;25.004;2022-12-07T01:18:51;96511.78;;;6.37
62932;BMP280;49037;41.898;25.004;2022-12-07T01:21:22;96503.34;;;6.38
62932;BMP280;49037;41.898;25.004;2022-12-07T01:23:48;96495.81;;;6.42
62932;BMP280;49037;41.898;25.004;2022-12-07T01:26:16;96489.09;;;6.41
62932;BMP280;49037;41.898;25.004;2022-12-07T01:28:43;96497.00;;;6.47
62932;BMP280;49037;41.898;25.004;2022-12-07T01:31:11;96479.22;;;6.36
62932;BMP280;49037;41.898;25.004;2022-12-07T01:33:38;96486.16;;;6.45
62932;BMP280;49037;41.898;25.004;2022-12-07T01:36:06;96477.69;;;6.46
62932;BMP280;49037;41.898;25.004;2022-12-07T01:38:32;96474.38;;;6.40
62932;BMP280;49037;41.898;25.004;2022-12-07T01:40:59;96477.19;;;6.48
62932;BMP280;49037;41.898;25.004;2022-12-07T01:43:27;96469.56;;;6.39
62932;BMP280;49037;41.898;25.004;2022-12-07T01:45:54;96475.63;;;6.39
62932;BMP280;49037;41.898;25.004;2022-12-07T01:48:43;96481.88;;;6.36
62932;BMP280;49037;41.898;25.004;2022-12-07T01:51:11;96474.16;;;6.38
62932;BMP280;49037;41.898;25.004;2022-12-07T01:53:41;96475.13;;;6.41
62932;BMP280;49037;41.898;25.004;2022-12-07T01:56:11;96457.06;;;6.34
62932;BMP280;49037;41.898;25.004;2022-12-07T01:58:37;96466.63;;;6.42
62932;BMP280;49037;41.898;25.004;2022-12-07T02:01:03;96459.47;;;6.37
62932;BMP280;49037;41.898;25.004;2022-12-07T02:03:37;96460.34;;;6.45
62932;BMP280;49037;41.898;25.004;2022-12-07T02:06:06;96450.97;;;6.44
62932;BMP280;49037;41.898;25.004;2022-12-07T02:08:32;96458.13;;;6.49
62932;BMP280;49037;41.898;25.004;2022-12-07T02:10:59;96455.28;;;6.47
62932;BMP280;49037;41.898;25.004;2022-12-07T02:13:26;96437.31;;;6.35
62932;BMP280;49037;41.898;25.004;2022-12-07T02:18:53;96449.34;;;6.36
62932;BMP280;49037;41.898;25.004;2022-12-07T02:32:13;96445.34;;;6.29
62932;BMP280;49037;41.898;25.004;2022-12-07T02:34:46;96443.97;;;6.17
62932;BMP280;49037;41.898;25.004;2022-12-07T02:40:40;96443.09;;;6.10
62932;BMP280;49037;41.898;25.004;2022-12-07T02:43:30;96427.28;;;5.99
62932;BMP280;49037;41.898;25.004;2022-12-07T02:46:04;96439.75;;;6.04
62932;BMP280;49037;41.898;25.004;2022-12-07T02:48:31;96437.81;;;6.04
62932;BMP280;49037;41.898;25.004;2022-12-07T02:50:57;96433.72;;;6.03
62932;BMP280;49037;41.898;25.004;2022-12-07T02:53:33;96438.53;;;6.05
62932;BMP280;49037;41.898;25.004;2022-12-07T03:01:35;96439.59;;;5.96
62932;BMP280;49037;41.898;25.004;2022-12-07T03:04:26;96434.06;;;5.94
62932;BMP280;49037;41.898;25.004;2022-12-07T03:07:01;96432.44;;;5.86
62932;BMP280;49037;41.898;25.004;2022-12-07T03:12:32;96435.09;;;5.86
62932;BMP280;49037;41.898;25.004;2022-12-07T03:15:14;96423.38;;;5.76
62932;BMP280;49037;41.898;25.004;2022-12-07T03:17:42;96420.75;;;5.70
62932;BMP280;49037;41.898;25.004;2022-12-07T03:20:14;96426.78;;;5.71
62932;BMP280;49037;41.898;25.004;2022-12-07T03:22:42;96420.28;;;5.66
62932;BMP280;49037;41.898;25.004;2022-12-07T03:25:11;96413.84;;;5.62
62932;BMP280;49037;41.898;25.004;2022-12-07T03:28:01;96410.25;;;5.60
62932;BMP280;49037;41.898;25.004;2022-12-07T03:30:42;96410.06;;;5.52
62932;BMP280;49037;41.898;25.004;2022-12-07T03:33:13;96399.47;;;5.47
62932;BMP280;49037;41.898;25.004;2022-12-07T03:35:44;96403.56;;;5.48
62932;BMP280;49037;41.898;25.004;2022-12-07T03:38:21;96396.66;;;5.39
62932;BMP280;49037;41.898;25.004;2022-12-07T03:41:01;96416.59;;;5.46
62932;BMP280;49037;41.898;25.004;2022-12-07T03:43:29;96402.91;;;5.36
62932;BMP280;49037;41.898;25.004;2022-12-07T03:54:49;96407.16;;;5.10
62932;BMP280;49037;41.898;25.004;2022-12-07T03:57:17;96399.97;;;5.10
62932;BMP280;49037;41.898;25.004;2022-12-07T03:59:43;96413.13;;;5.16
62932;BMP280;49037;41.898;25.004;2022-12-07T04:02:11;96411.53;;;5.02
62932;BMP280;49037;41.898;25.004;2022-12-07T04:04:38;96423.31;;;5.07
62932;BMP280;49037;41.898;25.004;2022-12-07T04:07:03;96431.50;;;5.03
62932;BMP280;49037;41.898;25.004;2022-12-07T04:09:29;96415.94;;;4.89
62932;BMP280;49037;41.898;25.004;2022-12-07T04:11:54;96433.94;;;4.96
62932;BMP280;49037;41.898;25.004;2022-12-07T04:14:20;96429.88;;;4.84
62932;BMP280;49037;41.898;25.004;2022-12-07T04:16:46;96418.88;;;4.80
62932;BMP280;49037;41.898;25.004;2022-12-07T04:19:12;96411.66;;;4.69
62932;BMP280;49037;41.898;25.004;2022-12-07T04:21:38;96410.47;;;4.65
62932;BMP280;49037;41.898;25.004;2022-12-07T04:24:04;96406.63;;;4.66
62932;BMP280;49037;41.898;25.004;2022-12-07T04:26:29;96416.72;;;4.62
62932;BMP280;49037;41.898;25.004;2022-12-07T04:28:55;96402.06;;;4.55
62932;BMP280;49037;41.898;25.004;2022-12-07T04:31:20;96413.84;;;4.49
62932;BMP280;49037;41.898;25.004;2022-12-07T04:33:47;96395.41;;;4.38
62932;BMP280;49037;41.898;25.004;2022-12-07T04:36:13;96402.13;;;4.39
62932;BMP280;49037;41.898;25.004;2022-12-07T04:38:39;96406.91;;;4.46
62932;BMP280;49037;41.898;25.004;2022-12-07T04:41:06;96394.44;;;4.36
62932;BMP280;49037;41.898;25.004;2022-12-07T04:43:33;96389.41;;;4.32
62932;BMP280;49037;41.898;25.004;2022-12-07T04:45:58;96396.38;;;4.30
62932;BMP280;49037;41.898;25.004;2022-12-07T04:48:24;96401.19;;;4.37
62932;BMP280;49037;41.898;25.004;2022-12-07T04:50:49;96397.09;;;4.36
62932;BMP280;49037;41.898;25.004;2022-12-07T04:53:15;96392.78;;;4.38
62932;BMP280;49037;41.898;25.004;2022-12-07T04:55:41;96381.47;;;4.32
62932;BMP280;49037;41.898;25.004;2022-12-07T04:58:06;96378.59;;;4.36
62932;BMP280;49037;41.898;25.004;2022-12-07T05:00:32;96386.53;;;4.36
62932;BMP280;49037;41.898;25.004;2022-12-07T05:02:57;96384.84;;;4.38
62932;BMP280;49037;41.898;25.004;2022-12-07T05:05:23;96375.69;;;4.39
62932;BMP280;49037;41.898;25.004;2022-12-07T05:07:49;96372.81;;;4.37
62932;BMP280;49037;41.898;25.004;2022-12-07T05:10:15;96388.19;;;4.39
62932;BMP280;49037;41.898;25.004;2022-12-07T05:12:40;96391.06;;;4.35
62932;BMP280;49037;41.898;25.004;2022-12-07T05:15:06;96384.09;;;4.38
62932;BMP280;49037;41.898;25.004;2022-12-07T05:17:31;96386.25;;;4.39
62932;BMP280;49037;41.898;25.004;2022-12-07T05:19:57;96382.44;;;4.35
62932;BMP280;49037;41.898;25.004;2022-12-07T05:22:22;96392.50;;;4.47
62932;BMP280;49037;41.898;25.004;2022-12-07T05:24:50;96392.78;;;4.38
62932;BMP280;49037;41.898;25.004;2022-12-07T05:27:15;96392.78;;;4.38
62932;BMP280;49037;41.898;25.004;2022-12-07T05:29:41;96399.00;;;4.35
62932;BMP280;49037;41.898;25.004;2022-12-07T05:32:06;96398.06;;;4.38
62932;BMP280;49037;41.898;25.004;2022-12-07T05:34:32;96401.91;;;4.26
62932;BMP280;49037;41.898;25.004;2022-12-07T05:36:57;96403.38;;;4.22
62932;BMP280;49037;41.898;25.004;2022-12-07T05:39:23;96415.88;;;4.27
62932;BMP280;49037;41.898;25.004;2022-12-07T05:41:48;96403.59;;;4.29
62932;BMP280;49037;41.898;25.004;2022-12-07T05:44:32;96413.44;;;4.34
62932;BMP280;49037;41.898;25.004;2022-12-07T05:46:57;96410.78;;;4.29
62932;BMP280;49037;41.898;25.004;2022-12-07T05:49:23;96402.88;;;4.34
62932;BMP280;49037;41.898;25.004;2022-12-07T05:51:48;96402.13;;;4.28
62932;BMP280;49037;41.898;25.004;2022-12-07T05:54:14;96402.88;;;4.23
62932;BMP280;49037;41.898;25.004;2022-12-07T05:56:39;96398.53;;;4.31
62932;BMP280;49037;41.898;25.004;2022-12-07T05:59:04;96405.50;;;4.40
62932;BMP280;49037;41.898;25.004;2022-12-07T06:02:00;96391.31;;;4.37
62932;BMP280;49037;41.898;25.004;2022-12-07T06:04:28;96413.38;;;4.51
62932;BMP280;49037;41.898;25.004;2022-12-07T06:06:54;96407.38;;;4.61
62932;BMP280;49037;41.898;25.004;2022-12-07T06:09:21;96401.13;;;4.58
62932;BMP280;49037;41.898;25.004;2022-12-07T06:11:47;96400.38;;;4.58
62932;BMP280;49037;41.898;25.004;2022-12-07T06:14:31;96417.19;;;4.66
62932;BMP280;49037;41.898;25.004;2022-12-07T06:16:57;96414.78;;;4.68
62932;BMP280;49037;41.898;25.004;2022-12-07T06:19:23;96398.22;;;4.62
62932;BMP280;49037;41.898;25.004;2022-12-07T06:21:48;96405.13;;;4.76
62932;BMP280;49037;41.898;25.004;2022-12-07T06:24:15;96407.28;;;4.83
62932;BMP280;49037;41.898;25.004;2022-12-07T06:26:41;96414.69;;;4.90
62932;BMP280;49037;41.898;25.004;2022-12-07T06:29:07;96424.56;;;4.95
62932;BMP280;49037;41.898;25.004;2022-12-07T06:31:33;96425.69;;;5.05
62932;BMP280;49037;41.898;25.004;2022-12-07T06:34:03;96429.06;;;5.10
62932;BMP280;49037;41.898;25.004;2022-12-07T06:36:29;96432.84;;;5.20
62932;BMP280;49037;41.898;25.004;2022-12-07T06:38:55;96434.56;;;5.18
62932;BMP280;49037;41.898;25.004;2022-12-07T06:41:20;96426.13;;;5.19
62932;BMP280;49037;41.898;25.004;2022-12-07T06:43:46;96421.53;;;5.20
62932;BMP280;49037;41.898;25.004;2022-12-07T06:46:12;96419.09;;;5.27
62932;BMP280;49037;41.898;25.004;2022-12-07T06:48:37;96425.34;;;5.30
62932;BMP280;49037;41.898;25.004;2022-12-07T06:51:03;96423.19;;;5.28
62932;BMP280;49037;41.898;25.004;2022-12-07T06:53:29;96437.75;;;5.46
62932;BMP280;49037;41.898;25.004;2022-12-07T06:55:54;96419.72;;;5.44
62932;BMP280;49037;41.898;25.004;2022-12-07T06:58:19;96422.97;;;5.61
62932;BMP280;49037;41.898;25.004;2022-12-07T07:00:45;96425.09;;;5.68
62932;BMP280;49037;41.898;25.004;2022-12-07T07:03:11;96407.28;;;5.68
62932;BMP280;49037;41.898;25.004;2022-12-07T07:05:36;96412.72;;;5.81
62932;BMP280;49037;41.898;25.004;2022-12-07T07:08:02;96420.63;;;5.87
62932;BMP280;49037;41.898;25.004;2022-12-07T07:10:28;96417.66;;;5.96
62932;BMP280;49037;41.898;25.004;2022-12-07T07:12:53;96411.59;;;6.01
62932;BMP280;49037;41.898;25.004;2022-12-07T07:15:19;96416.47;;;6.20
62932;BMP280;49037;41.898;25.004;2022-12-07T07:17:44;96413.00;;;6.31
62932;BMP280;49037;41.898;25.004;2022-12-07T07:20:10;96401.69;;;6.30
62932;BMP280;49037;41.898;25.004;2022-12-07T07:22:36;96413.09;;;6.44
62932;BMP280;49037;41.898;25.004;2022-12-07T07:25:02;96414.94;;;6.54
62932;BMP280;49037;41.898;25.004;2022-12-07T07:27:27;96415.09;;;6.62
62932;BMP280;49037;41.898;25.004;2022-12-07T07:29:53;96417.88;;;6.69
62932;BMP280;49037;41.898;25.004;2022-12-07T07:32:18;96429.31;;;6.82
62932;BMP280;49037;41.898;25.004;2022-12-07T07:34:44;96426.88;;;6.84
62932;BMP280;49037;41.898;25.004;2022-12-07T07:37:10;96431.28;;;7.00
62932;BMP280;49037;41.898;25.004;2022-12-07T07:39:37;96441.47;;;7.15
62932;BMP280;49037;41.898;25.004;2022-12-07T07:42:03;96439.66;;;7.22
62932;BMP280;49037;41.898;25.004;2022-12-07T07:44:29;96441.69;;;7.35
62932;BMP280;49037;41.898;25.004;2022-12-07T07:46:54;96440.00;;;7.50
62932;BMP280;49037;41.898;25.004;2022-12-07T07:49:20;96435.72;;;7.78
62932;BMP280;49037;41.898;25.004;2022-12-07T07:51:45;96446.78;;;7.95
62932;BMP280;49037;41.898;25.004;2022-12-07T07:54:11;96448.63;;;7.87
62932;BMP280;49037;41.898;25.004;2022-12-07T07:56:36;96436.16;;;7.64
62932;BMP280;49037;41.898;25.004;2022-12-07T07:59:02;96435.22;;;7.80
62932;BMP280;49037;41.898;25.004;2022-12-07T08:01:27;96435.66;;;7.97
62932;BMP280;49037;41.898;25.004;2022-12-07T08:03:53;96442.03;;;8.07
62932;BMP280;49037;41.898;25.004;2022-12-07T08:06:18;96443.06;;;8.16
62932;BMP280;49037;41.898;25.004;2022-12-07T08:08:46;96429.75;;;8.16
62932;BMP280;49037;41.898;25.004;2022-12-07T08:11:11;96436.53;;;8.17
62932;BMP280;49037;41.898;25.004;2022-12-07T08:13:37;96446.53;;;8.24
62932;BMP280;49037;41.898;25.004;2022-12-07T08:16:04;96444.63;;;8.25
62932;BMP280;49037;41.898;25.004;2022-12-07T08:18:30;96444.09;;;8.14
62932;BMP280;49037;41.898;25.004;2022-12-07T08:21:06;96447.34;;;8.07
62932;BMP280;49037;41.898;25.004;2022-12-07T08:23:31;96445.69;;;8.04
62932;BMP280;49037;41.898;25.004;2022-12-07T08:26:02;96436.06;;;7.88
62932;BMP280;49037;41.898;25.004;2022-12-07T08:28:29;96444.81;;;7.83
62932;BMP280;49037;41.898;25.004;2022-12-07T08:31:01;96426.69;;;7.68
62932;BMP280;49037;41.898;25.004;2022-12-07T08:33:27;96439.69;;;7.72
62932;BMP280;49037;41.898;25.004;2022-12-07T08:35:53;96436.00;;;7.75
62932;BMP280;49037;41.898;25.004;2022-12-07T08:38:19;96441.84;;;7.73
62932;BMP280;49037;41.898;25.004;2022-12-07T08:40:44;96437.03;;;7.72
62932;BMP280;49037;41.898;25.004;2022-12-07T08:43:09;96440.16;;;7.70
62932;BMP280;49037;41.898;25.004;2022-12-07T08:45:35;96431.59;;;7.65
62932;BMP280;49037;41.898;25.004;2022-12-07T08:48:04;96437.72;;;7.72
62932;BMP280;49037;41.898;25.004;2022-12-07T08:50:32;96437.16;;;7.79
62932;BMP280;49037;41.898;25.004;2022-12-07T08:52:58;96434.69;;;7.81
62932;BMP280;49037;41.898;25.004;2022-12-07T08:55:25;96430.97;;;7.90
62932;BMP280;49037;41.898;25.004;2022-12-07T08:57:51;96427.88;;;7.86
62932;BMP280;49037;41.898;25.004;2022-12-07T09:00:17;96418.72;;;8.00
62932;BMP280;49037;41.898;25.004;2022-12-07T09:02:43;96438.25;;;8.15
62932;BMP280;49037;41.898;25.004;2022-12-07T09:05:09;96421.69;;;8.09
62932;BMP280;49037;41.898;25.004;2022-12-07T09:07:35;96434.69;;;8.25
62932;BMP280;49037;41.898;25.004;2022-12-07T09:10:02;96434.06;;;8.32
62932;BMP280;49037;41.898;25.004;2022-12-07T09:12:28;96414.41;;;8.22
62932;BMP280;49037;41.898;25.004;2022-12-07T09:14:53;96427.75;;;8.48
62932;BMP280;49037;41.898;25.004;2022-12-07T09:17:19;96423.34;;;8.38
62932;BMP280;49037;41.898;25.004;2022-12-07T09:19:44;96421.63;;;8.40
62932;BMP280;49037;41.898;25.004;2022-12-07T09:22:10;96415.47;;;8.58
62932;BMP280;49037;41.898;25.004;2022-12-07T09:24:36;96400.09;;;8.77
62932;BMP280;49037;41.898;25.004;2022-12-07T09:27:01;96407.31;;;8.89
62932;BMP280;49037;41.898;25.004;2022-12-07T09:29:26;96409.34;;;8.96
62932;BMP280;49037;41.898;25.004;2022-12-07T09:31:52;96397.06;;;8.93
62932;BMP280;49037;41.898;25.004;2022-12-07T09:34:18;96391.59;;;8.99
62932;BMP280;49037;41.898;25.004;2022-12-07T09:36:43;96390.34;;;9.13
62932;BMP280;49037;41.898;25.004;2022-12-07T09:39:09;96382.53;;;9.14
62932;BMP280;49037;41.898;25.004;2022-12-07T09:41:38;96380.00;;;9.09
62932;BMP280;49037;41.898;25.004;2022-12-07T09:44:06;96369.97;;;9.15
62932;BMP280;49037;41.898;25.004;2022-12-07T09:46:39;96371.88;;;9.14
62932;BMP280;49037;41.898;25.004;2022-12-07T09:49:11;96376.31;;;9.32
62932;BMP280;49037;41.898;25.004;2022-12-07T09:51:38;96366.50;;;9.27
62932;BMP280;49037;41.898;25.004;2022-12-07T09:54:03;96362.81;;;9.30
62932;BMP280;49037;41.898;25.004;2022-12-07T09:56:29;96365.31;;;9.36
62932;BMP280;49037;41.898;25.004;2022-12-07T09:59:00;96363.13;;;9.27
62932;BMP280;49037;41.898;25.004;2022-12-07T10:01:33;96362.72;;;9.43
62932;BMP280;49037;41.898;25.004;2022-12-07T10:04:14;96353.25;;;9.55
62932;BMP280;49037;41.898;25.004;2022-12-07T10:06:42;96348.94;;;9.72
62932;BMP280;49037;41.898;25.004;2022-12-07T10:09:16;96343.50;;;9.85
62932;BMP280;49037;41.898;25.004;2022-12-07T10:12:02;96342.94;;;9.79
62932;BMP280;49037;41.898;25.004;2022-12-07T10:15:13;96341.03;;;9.87
62932;BMP280;49037;41.898;25.004;2022-12-07T10:20:47;96331.41;;;10.12
62932;BMP280;49037;41.898;25.004;2022-12-07T10:23:15;96325.34;;;10.11
62932;BMP280;49037;41.898;25.004;2022-12-07T10:25:41;96333.78;;;10.30
62932;BMP280;49037;41.898;25.004;2022-12-07T10:30:46;96321.47;;;10.20
62932;BMP280;49037;41.898;25.004;2022-12-07T10:33:35;96336.66;;;10.32
62932;BMP280;49037;41.898;25.004;2022-12-07T10:37:23;96319.38;;;9.91
62932;BMP280;49037;41.898;25.004;2022-12-07T10:39:56;96331.91;;;10.10
62932;BMP280;49037;41.898;25.004;2022-12-07T10:42:27;96324.88;;;9.93
62932;BMP280;49037;41.898;25.004;2022-12-07T10:46:45;96322.47;;;9.74
62932;BMP280;49037;41.898;25.004;2022-12-07T10:49:43;96321.75;;;9.54
62932;BMP280;49037;41.898;25.004;2022-12-07T10:55:11;96318.59;;;9.83
62932;BMP280;49037;41.898;25.004;2022-12-07T11:07:14;96316.31;;;9.87
62932;BMP280;49037;41.898;25.004;2022-12-07T11:10:17;96314.13;;;9.50
62932;BMP280;49037;41.898;25.004;2022-12-07T11:15:31;96327.72;;;9.39
62932;BMP280;49037;41.898;25.004;2022-12-07T11:18:15;96323.44;;;9.36
62932;BMP280;49037;41.898;25.004;2022-12-07T11:35:02;96294.28;;;9.38
62932;BMP280;49037;41.898;25.004;2022-12-07T11:37:34;96299.09;;;9.40
62932;BMP280;49037;41.898;25.004;2022-12-07T11:42:52;96287.22;;;9.41
62932;BMP280;49037;41.898;25.004;2022-12-07T11:45:29;96288.84;;;9.44
62932;BMP280;49037;41.898;25.004;2022-12-07T11:51:10;96288.00;;;9.76
62932;BMP280;49037;41.898;25.004;2022-12-07T11:53:46;96283.44;;;9.84
62932;BMP280;49037;41.898;25.004;2022-12-07T11:56:20;96273.03;;;10.01
62932;BMP280;49037;41.898;25.004;2022-12-07T11:59:01;96278.22;;;9.79
62932;BMP280;49037;41.898;25.004;2022-12-07T12:06:32;96272.38;;;9.88
62932;BMP280;49037;41.898;25.004;2022-12-07T12:20:15;96238.59;;;9.75
62932;BMP280;49037;41.898;25.004;2022-12-07T12:22:49;96224.88;;;9.79
62932;BMP280;49037;41.898;25.004;2022-12-07T12:25:52;96243.81;;;9.96
62932;BMP280;49037;41.898;25.004;2022-12-07T12:28:23;96244.31;;;9.87
62932;BMP280;49037;41.898;25.004;2022-12-07T12:31:13;96238.66;;;9.98
62932;BMP280;49037;41.898;25.004;2022-12-07T12:33:59;96239.16;;;9.89
62932;BMP280;49037;41.898;25.004;2022-12-07T12:46:59;96232.84;;;9.71
62932;BMP280;49037;41.898;25.004;2022-12-07T12:49:34;96234.16;;;9.85
62932;BMP280;49037;41.898;25.004;2022-12-07T12:55:00;96217.00;;;9.66
62932;BMP280;49037;41.898;25.004;2022-12-07T12:57:28;96221.94;;;9.62
62932;BMP280;49037;41.898;25.004;2022-12-07T13:02:26;96234.47;;;9.74
62932;BMP280;49037;41.898;25.004;2022-12-07T13:08:02;96236.84;;;9.58
62932;BMP280;49037;41.898;25.004;2022-12-07T13:10:33;96240.44;;;9.60
62932;BMP280;49037;41.898;25.004;2022-12-07T13:15:39;96228.59;;;9.41
62932;BMP280;49037;41.898;25.004;2022-12-07T13:21:00;96235.09;;;9.60
62932;BMP280;49037;41.898;25.004;2022-12-07T13:23:29;96226.22;;;9.65
62932;BMP280;49037;41.898;25.004;2022-12-07T13:26:25;96239.44;;;9.70
62932;BMP280;49037;41.898;25.004;2022-12-07T13:29:09;96231.00;;;9.52
62932;BMP280;49037;41.898;25.004;2022-12-07T13:31:49;96224.25;;;9.30
62932;BMP280;49037;41.898;25.004;2022-12-07T13:34:37;96234.41;;;9.32
62932;BMP280;49037;41.898;25.004;2022-12-07T13:37:24;96218.94;;;9.30
62932;BMP280;49037;41.898;25.004;2022-12-07T13:39:53;96228.34;;;9.31
62932;BMP280;49037;41.898;25.004;2022-12-07T13:42:24;96230.53;;;9.13
62932;BMP280;49037;41.898;25.004;2022-12-07T13:44:51;96230.53;;;9.13
62932;BMP280;49037;41.898;25.004;2022-12-07T13:47:24;96233.59;;;9.16
62932;BMP280;49037;41.898;25.004;2022-12-07T13:49:54;96230.13;;;9.09
62932;BMP280;49037;41.898;25.004;2022-12-07T13:52:29;96235.13;;;9.12
62932;BMP280;49037;41.898;25.004;2022-12-07T13:54:56;96230.25;;;9.03
62932;BMP280;49037;41.898;25.004;2022-12-07T13:57:24;96240.19;;;9.03
62932;BMP280;49037;41.898;25.004;2022-12-07T13:59:51;96245.69;;;8.97
62932;BMP280;49037;41.898;25.004;2022-12-07T14:02:24;96243.84;;;8.92
62932;BMP280;49037;41.898;25.004;2022-12-07T14:04:51;96245.41;;;8.88
62932;BMP280;49037;41.898;25.004;2022-12-07T14:07:23;96230.19;;;8.75
62932;BMP280;49037;41.898;25.004;2022-12-07T14:09:59;96233.06;;;8.77
62932;BMP280;49037;41.898;25.004;2022-12-07T14:12:25;96235.78;;;8.64
62932;BMP280;49037;41.898;25.004;2022-12-07T14:14:52;96223.31;;;8.60
62932;BMP280;49037;41.898;25.004;2022-12-07T14:17:25;96221.81;;;8.51
62932;BMP280;49037;41.898;25.004;2022-12-07T14:19:55;96229.09;;;8.51
62932;BMP280;49037;41.898;25.004;2022-12-07T14:22:25;96242.91;;;8.49
62932;BMP280;49037;41.898;25.004;2022-12-07T14:24:58;96234.13;;;8.41
62932;BMP280;49037;41.898;25.004;2022-12-07T14:27:24;96232.09;;;8.34
62932;BMP280;49037;41.898;25.004;2022-12-07T14:29:56;96223.84;;;8.25
62932;BMP280;49037;41.898;25.004;2022-12-07T14:32:24;96227.41;;;8.14
62932;BMP280;49037;41.898;25.004;2022-12-07T14:35:09;96223.16;;;8.12
62932;BMP280;49037;41.898;25.004;2022-12-07T14:37:36;96221.44;;;8.01
62932;BMP280;49037;41.898;25.004;2022-12-07T14:40:03;96238.28;;;8.04
62932;BMP280;49037;41.898;25.004;2022-12-07T14:42:30;96221.75;;;7.85
62932;BMP280;49037;41.898;25.004;2022-12-07T14:44:56;96228.81;;;7.82
62932;BMP280;49037;41.898;25.004;2022-12-07T14:47:23;96218.19;;;7.69
62932;BMP280;49037;41.898;25.004;2022-12-07T14:49:48;96229.31;;;7.68
62932;BMP280;49037;41.898;25.004;2022-12-07T14:52:27;96228.47;;;7.60
62932;BMP280;49037;41.898;25.004;2022-12-07T14:54:53;96214.81;;;7.43
62932;BMP280;49037;41.898;25.004;2022-12-07T14:57:19;96219.19;;;7.41
62932;BMP280;49037;41.898;25.004;2022-12-07T14:59:44;96215.00;;;7.32
62932;BMP280;49037;41.898;25.004;2022-12-07T15:02:14;96222.97;;;7.32
62932;BMP280;49037;41.898;25.004;2022-12-07T15:04:40;96220.19;;;7.25
62932;BMP280;49037;41.898;25.004;2022-12-07T15:07:16;96213.75;;;7.20
62932;BMP280;49037;41.898;25.004;2022-12-07T15:09:43;96219.06;;;7.20
62932;BMP280;49037;41.898;25.004;2022-12-07T15:12:09;96215.38;;;7.11
62932;BMP280;49037;41.898;25.004;2022-12-07T15:14:34;96214.84;;;7.12
62932;BMP280;49037;41.898;25.004;2022-12-07T15:17:00;96212.41;;;7.01
62932;BMP280;49037;41.898;25.004;2022-12-07T15:19:25;96210.97;;;7.00
62932;BMP280;49037;41.898;25.004;2022-12-07T15:21:52;96214.84;;;6.99
62932;BMP280;49037;41.898;25.004;2022-12-07T15:24:18;96225.69;;;7.01
62932;BMP280;49037;41.898;25.004;2022-12-07T15:26:44;96219.00;;;6.95
62932;BMP280;49037;41.898;25.004;2022-12-07T15:29:10;96209.41;;;6.92
62932;BMP280;49037;41.898;25.004;2022-12-07T15:31:36;96218.94;;;6.82
62932;BMP280;49037;41.898;25.004;2022-12-07T15:34:02;96211.50;;;6.80
62932;BMP280;49037;41.898;25.004;2022-12-07T15:36:30;96214.03;;;6.73
62932;BMP280;49037;41.898;25.004;2022-12-07T15:38:56;96233.31;;;6.73
62932;BMP280;49037;41.898;25.004;2022-12-07T15:41:22;96217.56;;;6.63
62932;BMP280;49037;41.898;25.004;2022-12-07T15:43:47;96237.28;;;6.67
62932;BMP280;49037;41.898;25.004;2022-12-07T15:46:33;96225.19;;;6.53
62932;BMP280;49037;41.898;25.004;2022-12-07T15:48:59;96231.47;;;6.50
62932;BMP280;49037;41.898;25.004;2022-12-07T15:51:28;96224.63;;;6.42
62932;BMP280;49037;41.898;25.004;2022-12-07T15:53:57;96245.09;;;6.41
62932;BMP280;49037;41.898;25.004;2022-12-07T15:56:23;96237.66;;;6.40
62932;BMP280;49037;41.898;25.004;2022-12-07T15:58:48;96246.38;;;6.35
62932;BMP280;49037;41.898;25.004;2022-12-07T16:01:17;96238.69;;;6.31
62932;BMP280;49037;41.898;25.004;2022-12-07T16:03:43;96242.16;;;6.26
62932;BMP280;49037;41.898;25.004;2022-12-07T16:06:11;96244.00;;;6.31
62932;BMP280;49037;41.898;25.004;2022-12-07T16:08:45;96230.56;;;6.29
62932;BMP280;49037;41.898;25.004;2022-12-07T16:11:11;96233.72;;;6.28
62932;BMP280;49037;41.898;25.004;2022-12-07T16:13:37;96246.19;;;6.33
62932;BMP280;49037;41.898;25.004;2022-12-07T16:16:08;96239.03;;;6.28
62932;BMP280;49037;41.898;25.004;2022-12-07T16:18:35;96250.34;;;6.28